Goodfellow Terrace, Missouri
Current Conditions -  °F | °C
As of 2:51 AM on Wednesday 26 Nov 2014 (Local Time) from KSTL Reporting Station
Broken Clouds Broken Clouds  
Wind Chill: 21°   Ceiling: 20000
Heat Index: 29°   Visibility: 9mi
Dew Point: 23°   Wind: 8mph
Humidity: 78%   Direction: 110°ESE
Pressure: 30.1"   Gusts: NA
Location:  38.694°N, 90.256°W
Report Text: KSTL 260851Z 11007KT 9SM BKN200 M02/M05 A3010 RMK AO2 SLP202 T10171050 56017
Loading
Personal Weather Stations






























Interactive Weather Map New forecast layout! Learn more

10-Day Weather Forecast

Advertisements
Track Severe Weather on mobile